LHA8136 BGGH-ENSB
Flight info
| Callsign | LHA8136 |
|---|---|
| Flight time | 3h 10m |
| Altitude | 27000 |
| Route | DODFO Y31 TESVO/M077F350 DCT BELZI/M072F270 Y42 JV/M077F350 DCT 7050N DCT 75N034W/M078F370 76N030W DCT 7720N DCT 78N010W/N0450F370 DCT LON |
| Aircraft | A320/M-SDE1E2FGIJ1RWYZE3/LB1 |
Departure
| Time | 2026-04-21 15:50 |
|---|---|
| Airport | Nuuk International Airport (BGGH) |
Arrival
| Time | 2026-04-21 19:01 |
|---|---|
| Airport | Svalbard Airport, Longyear (ENSB) |
| Time | Latitude | Longitude | Altitude | Speed | Heading |
|---|---|---|---|---|---|
| 2026-04-21 15:20 | 64.18534 | -51.67817 | 289 ft | 0 kts | 141° |
| 2026-04-21 15:39 | 64.18529 | -51.67820 | 288 ft | 1 kts | 191° |
| 2026-04-21 15:39 | 64.18531 | -51.67838 | 293 ft | 1 kts | 288° |
| 2026-04-21 15:40 | 64.18542 | -51.67853 | 288 ft | 4 kts | 323° |
| 2026-04-21 15:40 | 64.18578 | -51.67893 | 288 ft | 7 kts | 343° |
| 2026-04-21 15:40 | 64.18635 | -51.67881 | 288 ft | 10 kts | 18° |
| 2026-04-21 15:40 | 64.18706 | -51.67825 | 288 ft | 12 kts | 18° |
| 2026-04-21 15:41 | 64.18793 | -51.67762 | 288 ft | 14 kts | 17° |
| 2026-04-21 15:41 | 64.18897 | -51.67689 | 288 ft | 17 kts | 17° |
| 2026-04-21 15:41 | 64.19000 | -51.67615 | 288 ft | 10 kts | 17° |
| 2026-04-21 15:41 | 64.19012 | -51.67608 | 288 ft | 0 kts | 17° |
| 2026-04-21 15:46 | 64.19036 | -51.67590 | 288 ft | 8 kts | 17° |
| 2026-04-21 15:46 | 64.19078 | -51.67688 | 290 ft | 11 kts | 288° |
| 2026-04-21 15:46 | 64.19122 | -51.67858 | 291 ft | 14 kts | 335° |
| 2026-04-21 15:47 | 64.19227 | -51.67819 | 287 ft | 18 kts | 16° |
| 2026-04-21 15:47 | 64.19352 | -51.67728 | 287 ft | 19 kts | 18° |
| 2026-04-21 15:47 | 64.19474 | -51.67638 | 288 ft | 17 kts | 17° |
| 2026-04-21 15:47 | 64.19584 | -51.67557 | 291 ft | 16 kts | 18° |
| 2026-04-21 15:48 | 64.19685 | -51.67481 | 292 ft | 15 kts | 18° |
| 2026-04-21 15:48 | 64.19788 | -51.67403 | 291 ft | 17 kts | 18° |
| 2026-04-21 15:48 | 64.19906 | -51.67323 | 293 ft | 17 kts | 358° |
| 2026-04-21 15:48 | 64.20007 | -51.67321 | 294 ft | 12 kts | 18° |
| 2026-04-21 15:49 | 64.20021 | -51.67248 | 294 ft | 2 kts | 151° |
| 2026-04-21 15:49 | 64.20012 | -51.67245 | 295 ft | 1 kts | 165° |
| 2026-04-21 15:49 | 64.20000 | -51.67247 | 292 ft | 3 kts | 192° |
| 2026-04-21 15:49 | 64.19961 | -51.67273 | 295 ft | 13 kts | 198° |
| 2026-04-21 15:50 | 64.19711 | -51.67450 | 296 ft | 68 kts | 197° |
| 2026-04-21 15:50 | 64.19078 | -51.67896 | 307 ft | 117 kts | 192° |
| 2026-04-21 15:50 | 64.18316 | -51.68378 | 959 ft | 112 kts | 192° |
| 2026-04-21 15:50 | 64.17556 | -51.68876 | 1500 ft | 113 kts | 193° |
| 2026-04-21 15:51 | 64.16809 | -51.69605 | 1847 ft | 128 kts | 207° |
| 2026-04-21 15:51 | 64.16121 | -51.71232 | 2261 ft | 164 kts | 232° |
| 2026-04-21 15:51 | 64.16070 | -51.74231 | 2507 ft | 223 kts | 276° |
| 2026-04-21 15:51 | 64.17111 | -51.77348 | 2779 ft | 276 kts | 318° |
| 2026-04-21 15:52 | 64.18984 | -51.78883 | 3335 ft | 298 kts | 351° |
| 2026-04-21 15:52 | 64.21109 | -51.79118 | 3920 ft | 309 kts | 2° |
| 2026-04-21 15:52 | 64.23279 | -51.79071 | 4738 ft | 316 kts | 2° |
| 2026-04-21 15:52 | 64.25506 | -51.79018 | 5483 ft | 324 kts | 2° |
| 2026-04-21 15:53 | 64.27787 | -51.79039 | 6232 ft | 332 kts | 358° |
| 2026-04-21 15:53 | 64.30102 | -51.79586 | 6998 ft | 337 kts | 351° |
| 2026-04-21 15:53 | 64.32425 | -51.80516 | 7735 ft | 340 kts | 348° |
| 2026-04-21 15:53 | 64.34766 | -51.81431 | 8548 ft | 343 kts | 355° |
| 2026-04-21 15:54 | 64.37161 | -51.81502 | 9353 ft | 345 kts | 3° |
| 2026-04-21 15:54 | 64.39565 | -51.81283 | 10165 ft | 347 kts | 5° |
| 2026-04-21 15:54 | 64.42018 | -51.80929 | 10593 ft | 363 kts | 6° |
| 2026-04-21 15:54 | 64.44611 | -51.80475 | 10764 ft | 385 kts | 6° |
| 2026-04-21 15:55 | 64.47357 | -51.79973 | 10924 ft | 405 kts | 6° |
| 2026-04-21 15:55 | 64.50191 | -51.79472 | 11395 ft | 412 kts | 5° |
| 2026-04-21 15:55 | 64.53059 | -51.79001 | 11967 ft | 415 kts | 5° |
| 2026-04-21 15:55 | 64.55958 | -51.78549 | 12559 ft | 419 kts | 5° |
| 2026-04-21 15:56 | 64.58838 | -51.77550 | 13117 ft | 419 kts | 20° |
| 2026-04-21 15:56 | 64.61495 | -51.74840 | 13760 ft | 417 kts | 31° |
| 2026-04-21 15:56 | 64.64069 | -51.71679 | 14361 ft | 419 kts | 32° |
| 2026-04-21 15:56 | 64.66655 | -51.68462 | 14886 ft | 423 kts | 32° |
| 2026-04-21 15:57 | 64.69257 | -51.65224 | 15408 ft | 426 kts | 32° |
| 2026-04-21 15:57 | 64.71884 | -51.61955 | 15973 ft | 430 kts | 32° |
| 2026-04-21 15:57 | 64.74549 | -51.58670 | 16428 ft | 436 kts | 32° |
| 2026-04-21 15:57 | 64.77207 | -51.55392 | 16961 ft | 439 kts | 32° |
| 2026-04-21 15:58 | 64.79919 | -51.52041 | 17502 ft | 443 kts | 32° |
| 2026-04-21 15:58 | 64.82656 | -51.48665 | 18030 ft | 446 kts | 32° |
| 2026-04-21 15:58 | 64.85413 | -51.45264 | 18522 ft | 449 kts | 32° |
| 2026-04-21 15:58 | 64.88190 | -51.41834 | 18927 ft | 452 kts | 31° |
| 2026-04-21 15:59 | 64.90971 | -51.38337 | 19389 ft | 454 kts | 32° |
| 2026-04-21 15:59 | 64.93758 | -51.34784 | 19873 ft | 457 kts | 32° |
| 2026-04-21 15:59 | 64.96556 | -51.31191 | 20341 ft | 459 kts | 32° |
| 2026-04-21 15:59 | 64.99413 | -51.27738 | 20771 ft | 465 kts | 24° |
| 2026-04-21 16:00 | 65.02518 | -51.25487 | 21186 ft | 469 kts | 16° |
| 2026-04-21 16:00 | 65.05678 | -51.23516 | 21633 ft | 471 kts | 15° |
| 2026-04-21 16:00 | 65.08914 | -51.22176 | 22048 ft | 474 kts | 6° |
| 2026-04-21 16:00 | 65.12203 | -51.21321 | 22473 ft | 477 kts | 6° |
| 2026-04-21 16:01 | 65.15511 | -51.20524 | 22902 ft | 479 kts | 5° |
| 2026-04-21 16:01 | 65.18834 | -51.19807 | 23315 ft | 481 kts | 4° |
| 2026-04-21 16:01 | 65.22175 | -51.19140 | 23696 ft | 483 kts | 4° |
| 2026-04-21 16:01 | 65.25529 | -51.18499 | 24102 ft | 484 kts | 4° |
| 2026-04-21 16:02 | 65.28890 | -51.17861 | 24430 ft | 486 kts | 4° |
| 2026-04-21 16:02 | 65.32265 | -51.17203 | 24736 ft | 488 kts | 4° |
| 2026-04-21 16:02 | 65.35654 | -51.16522 | 25054 ft | 490 kts | 4° |
| 2026-04-21 16:02 | 65.39056 | -51.15826 | 25356 ft | 492 kts | 4° |
| 2026-04-21 16:03 | 65.42478 | -51.15115 | 25659 ft | 494 kts | 4° |
| 2026-04-21 16:03 | 65.45919 | -51.14390 | 25976 ft | 498 kts | 4° |
| 2026-04-21 16:03 | 65.49386 | -51.13667 | 26170 ft | 503 kts | 4° |
| 2026-04-21 16:03 | 65.52889 | -51.12940 | 26444 ft | 506 kts | 4° |
| 2026-04-21 16:04 | 65.56404 | -51.12209 | 26744 ft | 509 kts | 5° |
| 2026-04-21 16:04 | 65.59943 | -51.11463 | 27016 ft | 511 kts | 4° |
| 2026-04-21 16:04 | 65.63482 | -51.10718 | 27407 ft | 511 kts | 4° |
| 2026-04-21 16:04 | 65.67016 | -51.09970 | 27877 ft | 509 kts | 4° |
| 2026-04-21 16:05 | 65.70542 | -51.09217 | 28343 ft | 508 kts | 5° |
| 2026-04-21 16:05 | 65.74064 | -51.08461 | 28793 ft | 508 kts | 4° |
| 2026-04-21 16:05 | 65.77583 | -51.07708 | 29227 ft | 507 kts | 4° |
| 2026-04-21 16:05 | 65.81094 | -51.06965 | 29663 ft | 507 kts | 4° |
| 2026-04-21 16:06 | 65.84607 | -51.06231 | 30103 ft | 506 kts | 4° |
| 2026-04-21 16:06 | 65.88115 | -51.05494 | 30511 ft | 506 kts | 4° |
| 2026-04-21 16:06 | 65.91620 | -51.04751 | 30898 ft | 505 kts | 4° |
| 2026-04-21 16:06 | 65.95116 | -51.04003 | 31263 ft | 505 kts | 5° |
| 2026-04-21 16:07 | 65.98614 | -51.03248 | 31632 ft | 503 kts | 4° |
| 2026-04-21 16:07 | 66.02071 | -51.02495 | 32265 ft | 498 kts | 4° |
| 2026-04-21 16:07 | 66.05531 | -51.01737 | 32586 ft | 499 kts | 4° |
| 2026-04-21 16:07 | 66.08987 | -51.00978 | 32924 ft | 499 kts | 4° |
| 2026-04-21 16:08 | 66.15910 | -50.99451 | 33641 ft | 499 kts | 4° |
| 2026-04-21 16:08 | 66.19364 | -50.98683 | 33994 ft | 499 kts | 4° |
| 2026-04-21 16:08 | 66.22818 | -50.97916 | 34323 ft | 498 kts | 4° |
| 2026-04-21 16:09 | 66.26265 | -50.97155 | 34632 ft | 497 kts | 4° |
| 2026-04-21 16:09 | 66.29710 | -50.96393 | 34921 ft | 497 kts | 4° |
| 2026-04-21 16:09 | 66.33108 | -50.95640 | 35151 ft | 497 kts | 4° |
| 2026-04-21 16:10 | 66.40061 | -50.94111 | 35216 ft | 508 kts | 4° |
| 2026-04-21 16:10 | 66.47158 | -50.92534 | 35209 ft | 514 kts | 4° |
| 2026-04-21 16:11 | 66.54294 | -50.90930 | 35206 ft | 515 kts | 4° |
| 2026-04-21 16:11 | 66.61426 | -50.89300 | 35208 ft | 515 kts | 4° |
| 2026-04-21 16:12 | 66.67358 | -50.87946 | 35206 ft | 515 kts | 4° |
| 2026-04-21 16:12 | 66.75701 | -50.86065 | 35198 ft | 515 kts | 4° |
| 2026-04-21 16:13 | 66.82836 | -50.84394 | 35237 ft | 515 kts | 4° |
| 2026-04-21 16:13 | 66.88769 | -50.83003 | 35251 ft | 515 kts | 4° |
| 2026-04-21 16:14 | 66.95904 | -50.81334 | 35261 ft | 515 kts | 4° |
| 2026-04-21 16:14 | 67.03036 | -50.79670 | 35262 ft | 515 kts | 4° |
| 2026-04-21 16:15 | 67.10171 | -50.78004 | 35262 ft | 515 kts | 4° |
| 2026-04-21 16:15 | 67.17305 | -50.76315 | 35245 ft | 516 kts | 4° |
| 2026-04-21 16:16 | 67.24455 | -50.74601 | 35241 ft | 516 kts | 4° |
| 2026-04-21 16:16 | 67.31575 | -50.72896 | 35861 ft | 508 kts | 4° |
| 2026-04-21 16:16 | 67.35085 | -50.72046 | 36226 ft | 506 kts | 4° |
| 2026-04-21 16:17 | 67.38590 | -50.71199 | 36506 ft | 506 kts | 4° |
| 2026-04-21 16:17 | 67.42094 | -50.70348 | 36760 ft | 505 kts | 4° |
| 2026-04-21 16:17 | 67.45595 | -50.69498 | 36986 ft | 506 kts | 4° |
| 2026-04-21 16:17 | 67.49098 | -50.68645 | 37177 ft | 506 kts | 4° |
| 2026-04-21 16:18 | 67.52607 | -50.67788 | 37215 ft | 507 kts | 4° |
| 2026-04-21 16:18 | 67.59598 | -50.66065 | 37205 ft | 504 kts | 4° |
| 2026-04-21 16:19 | 67.66573 | -50.64334 | 37207 ft | 503 kts | 4° |
| 2026-04-21 16:19 | 67.73547 | -50.62598 | 37224 ft | 505 kts | 4° |
| 2026-04-21 16:20 | 67.80580 | -50.60841 | 37222 ft | 509 kts | 4° |
| 2026-04-21 16:20 | 67.87646 | -50.59055 | 37225 ft | 510 kts | 4° |
| 2026-04-21 16:21 | 67.94670 | -50.57280 | 37210 ft | 511 kts | 4° |
| 2026-04-21 16:21 | 68.01743 | -50.55492 | 37249 ft | 510 kts | 4° |
| 2026-04-21 16:22 | 68.08803 | -50.53665 | 37241 ft | 509 kts | 4° |
| 2026-04-21 16:22 | 68.15860 | -50.51826 | 37239 ft | 509 kts | 4° |
| 2026-04-21 16:23 | 68.22911 | -50.50014 | 37256 ft | 509 kts | 4° |
| 2026-04-21 16:23 | 68.29960 | -50.48175 | 37291 ft | 509 kts | 4° |
| 2026-04-21 16:23 | 68.33488 | -50.47246 | 37190 ft | 509 kts | 4° |
| 2026-04-21 16:24 | 68.37006 | -50.46319 | 37203 ft | 508 kts | 4° |
| 2026-04-21 16:24 | 68.44046 | -50.44450 | 37215 ft | 508 kts | 4° |
| 2026-04-21 16:25 | 68.51097 | -50.42578 | 37244 ft | 509 kts | 4° |
| 2026-04-21 16:25 | 68.58148 | -50.40700 | 37229 ft | 509 kts | 4° |
| 2026-04-21 16:26 | 68.65196 | -50.38800 | 37248 ft | 509 kts | 4° |
| 2026-04-21 16:26 | 68.72250 | -50.36886 | 37225 ft | 509 kts | 4° |
| 2026-04-21 16:27 | 68.79306 | -50.34948 | 37240 ft | 509 kts | 4° |
| 2026-04-21 16:27 | 68.86349 | -50.33015 | 37257 ft | 508 kts | 4° |
| 2026-04-21 16:28 | 68.93391 | -50.31060 | 37226 ft | 509 kts | 4° |
| 2026-04-21 16:28 | 69.00438 | -50.29114 | 37223 ft | 510 kts | 4° |
| 2026-04-21 16:29 | 69.07509 | -50.27144 | 37223 ft | 511 kts | 4° |
| 2026-04-21 16:29 | 69.14600 | -50.25152 | 37222 ft | 512 kts | 4° |
| 2026-04-21 16:30 | 69.21701 | -50.23140 | 37246 ft | 513 kts | 4° |
| 2026-04-21 16:30 | 69.28806 | -50.21118 | 37257 ft | 513 kts | 4° |
| 2026-04-21 16:31 | 69.35873 | -50.19089 | 37265 ft | 514 kts | 4° |
| 2026-04-21 16:31 | 69.42979 | -50.17009 | 37267 ft | 514 kts | 4° |
| 2026-04-21 16:32 | 69.50095 | -50.14917 | 37227 ft | 514 kts | 4° |
| 2026-04-21 16:32 | 69.57195 | -50.12833 | 37205 ft | 513 kts | 4° |
| 2026-04-21 16:33 | 69.64308 | -50.10759 | 37231 ft | 514 kts | 4° |
| 2026-04-21 16:33 | 69.71430 | -50.08643 | 37232 ft | 515 kts | 4° |
| 2026-04-21 16:34 | 69.78565 | -50.06512 | 37264 ft | 516 kts | 4° |
| 2026-04-21 16:34 | 69.85706 | -50.04337 | 37268 ft | 516 kts | 4° |
| 2026-04-21 16:35 | 69.92848 | -50.02162 | 37258 ft | 516 kts | 4° |
| 2026-04-21 16:35 | 69.99834 | -49.97468 | 37261 ft | 517 kts | 23° |
| 2026-04-21 16:36 | 70.06003 | -49.87017 | 37261 ft | 511 kts | 39° |
| 2026-04-21 16:36 | 70.11719 | -49.74561 | 37274 ft | 512 kts | 39° |
| 2026-04-21 16:37 | 70.17425 | -49.62012 | 37285 ft | 512 kts | 40° |
| 2026-04-21 16:37 | 70.23127 | -49.49390 | 37285 ft | 512 kts | 40° |
| 2026-04-21 16:38 | 70.28781 | -49.36770 | 37360 ft | 513 kts | 40° |
| 2026-04-21 16:38 | 70.34468 | -49.23996 | 37260 ft | 512 kts | 40° |
| 2026-04-21 16:39 | 70.40150 | -49.11138 | 37262 ft | 514 kts | 40° |
| 2026-04-21 16:39 | 70.45830 | -48.98177 | 37267 ft | 515 kts | 40° |
| 2026-04-21 16:40 | 70.51517 | -48.85126 | 37262 ft | 515 kts | 40° |
| 2026-04-21 16:40 | 70.57208 | -48.72016 | 37283 ft | 516 kts | 40° |
| 2026-04-21 16:41 | 70.62879 | -48.58808 | 37304 ft | 515 kts | 40° |
| 2026-04-21 16:41 | 70.68532 | -48.45515 | 37308 ft | 515 kts | 41° |
| 2026-04-21 16:42 | 70.74179 | -48.32166 | 37317 ft | 515 kts | 41° |
| 2026-04-21 16:42 | 70.79824 | -48.18761 | 37287 ft | 515 kts | 41° |
| 2026-04-21 16:43 | 70.85452 | -48.05270 | 37304 ft | 515 kts | 41° |
| 2026-04-21 16:43 | 70.91069 | -47.91694 | 37290 ft | 515 kts | 41° |
| 2026-04-21 16:44 | 70.96678 | -47.78044 | 37298 ft | 515 kts | 41° |
| 2026-04-21 16:44 | 71.02282 | -47.64323 | 37302 ft | 515 kts | 41° |
| 2026-04-21 16:45 | 71.07871 | -47.50509 | 37291 ft | 515 kts | 41° |
| 2026-04-21 16:45 | 71.13449 | -47.36618 | 37306 ft | 515 kts | 41° |
| 2026-04-21 16:46 | 71.18981 | -47.22722 | 37316 ft | 516 kts | 42° |
| 2026-04-21 16:46 | 71.24546 | -47.08681 | 37316 ft | 516 kts | 42° |
| 2026-04-21 16:47 | 71.30093 | -46.94550 | 37319 ft | 515 kts | 42° |
| 2026-04-21 16:47 | 71.35624 | -46.80323 | 37307 ft | 515 kts | 42° |
| 2026-04-21 16:48 | 71.41139 | -46.66046 | 37323 ft | 514 kts | 42° |
| 2026-04-21 16:48 | 71.46635 | -46.51715 | 37327 ft | 513 kts | 43° |
| 2026-04-21 16:49 | 71.52125 | -46.37331 | 37326 ft | 513 kts | 43° |
| 2026-04-21 16:49 | 71.57598 | -46.22870 | 37326 ft | 513 kts | 43° |
| 2026-04-21 16:50 | 71.63050 | -46.08288 | 37323 ft | 513 kts | 43° |
| 2026-04-21 16:50 | 71.68489 | -45.93650 | 37334 ft | 512 kts | 43° |
| 2026-04-21 16:51 | 71.73921 | -45.78986 | 37336 ft | 512 kts | 43° |
| 2026-04-21 16:51 | 71.79327 | -45.64246 | 37333 ft | 511 kts | 44° |
| 2026-04-21 16:52 | 71.84718 | -45.49397 | 37334 ft | 511 kts | 44° |
| 2026-04-21 16:52 | 71.89197 | -45.37001 | 37310 ft | 511 kts | 44° |
| 2026-04-21 16:53 | 71.95469 | -45.19487 | 37321 ft | 510 kts | 44° |
| 2026-04-21 16:53 | 72.00817 | -45.04435 | 37324 ft | 510 kts | 44° |
| 2026-04-21 16:54 | 72.06144 | -44.89298 | 37326 ft | 509 kts | 44° |
| 2026-04-21 16:54 | 72.11457 | -44.74094 | 37314 ft | 509 kts | 45° |
| 2026-04-21 16:55 | 72.16755 | -44.58805 | 37291 ft | 508 kts | 45° |
| 2026-04-21 16:55 | 72.21998 | -44.43558 | 37311 ft | 508 kts | 45° |
| 2026-04-21 16:56 | 72.27261 | -44.28105 | 37306 ft | 508 kts | 45° |
| 2026-04-21 16:56 | 72.32510 | -44.12588 | 37306 ft | 508 kts | 45° |
| 2026-04-21 16:57 | 72.37748 | -43.96990 | 37308 ft | 507 kts | 45° |
| 2026-04-21 16:57 | 72.42974 | -43.81304 | 37288 ft | 507 kts | 45° |
| 2026-04-21 16:58 | 72.48186 | -43.65547 | 37295 ft | 507 kts | 45° |
| 2026-04-21 16:58 | 72.53383 | -43.49681 | 37300 ft | 507 kts | 45° |
| 2026-04-21 16:59 | 72.58564 | -43.33709 | 37305 ft | 507 kts | 46° |
| 2026-04-21 16:59 | 72.63736 | -43.17666 | 37306 ft | 507 kts | 46° |
| 2026-04-21 17:00 | 72.68900 | -43.01516 | 37294 ft | 507 kts | 46° |
| 2026-04-21 17:00 | 72.73181 | -42.88020 | 37299 ft | 508 kts | 46° |
| 2026-04-21 17:01 | 72.79193 | -42.68937 | 37308 ft | 508 kts | 46° |
| 2026-04-21 17:01 | 72.84321 | -42.52483 | 37310 ft | 508 kts | 46° |
| 2026-04-21 17:02 | 72.88565 | -42.38721 | 37316 ft | 508 kts | 46° |
| 2026-04-21 17:02 | 72.94500 | -42.19386 | 37317 ft | 508 kts | 46° |
| 2026-04-21 17:03 | 72.99597 | -42.02651 | 37320 ft | 508 kts | 47° |
| 2026-04-21 17:03 | 73.04668 | -41.85811 | 37321 ft | 508 kts | 47° |
| 2026-04-21 17:04 | 73.08871 | -41.71733 | 37323 ft | 508 kts | 47° |
| 2026-04-21 17:04 | 73.13920 | -41.54710 | 37320 ft | 508 kts | 47° |
| 2026-04-21 17:05 | 73.18948 | -41.37599 | 37304 ft | 508 kts | 47° |
| 2026-04-21 17:05 | 73.23979 | -41.20359 | 37270 ft | 510 kts | 47° |
| 2026-04-21 17:06 | 73.29010 | -41.02946 | 37267 ft | 512 kts | 48° |
| 2026-04-21 17:06 | 73.34043 | -40.85363 | 37266 ft | 513 kts | 48° |
| 2026-04-21 17:07 | 73.39079 | -40.67646 | 37277 ft | 514 kts | 48° |
| 2026-04-21 17:07 | 73.44106 | -40.49804 | 37273 ft | 515 kts | 48° |
| 2026-04-21 17:08 | 73.49124 | -40.31816 | 37280 ft | 515 kts | 48° |
| 2026-04-21 17:08 | 73.54125 | -40.13725 | 37285 ft | 516 kts | 49° |
| 2026-04-21 17:09 | 73.61602 | -39.86379 | 37294 ft | 516 kts | 49° |
| 2026-04-21 17:09 | 73.66575 | -39.68009 | 37296 ft | 516 kts | 49° |
| 2026-04-21 17:10 | 73.71526 | -39.49523 | 37279 ft | 516 kts | 49° |
| 2026-04-21 17:10 | 73.76458 | -39.30907 | 37284 ft | 516 kts | 49° |
| 2026-04-21 17:11 | 73.81380 | -39.12173 | 37276 ft | 517 kts | 49° |
| 2026-04-21 17:11 | 73.86298 | -38.93359 | 37292 ft | 517 kts | 49° |
| 2026-04-21 17:12 | 73.91163 | -38.74537 | 37283 ft | 517 kts | 50° |
| 2026-04-21 17:12 | 73.96035 | -38.55441 | 37261 ft | 517 kts | 49° |
| 2026-04-21 17:13 | 74.00894 | -38.36243 | 37275 ft | 517 kts | 50° |
| 2026-04-21 17:13 | 74.05739 | -38.16909 | 37276 ft | 518 kts | 50° |
| 2026-04-21 17:14 | 74.10575 | -37.97464 | 37280 ft | 518 kts | 50° |
| 2026-04-21 17:14 | 74.15400 | -37.77929 | 37281 ft | 518 kts | 50° |
| 2026-04-21 17:15 | 74.20202 | -37.58236 | 37269 ft | 518 kts | 50° |
| 2026-04-21 17:15 | 74.24986 | -37.38414 | 37273 ft | 519 kts | 50° |
| 2026-04-21 17:16 | 74.29759 | -37.18462 | 37263 ft | 519 kts | 50° |
| 2026-04-21 17:16 | 74.34516 | -36.98396 | 37264 ft | 519 kts | 50° |
| 2026-04-21 17:17 | 74.39258 | -36.78190 | 37264 ft | 519 kts | 51° |
| 2026-04-21 17:17 | 74.43976 | -36.57862 | 37257 ft | 519 kts | 50° |
| 2026-04-21 17:18 | 74.48678 | -36.37407 | 37258 ft | 520 kts | 50° |
| 2026-04-21 17:18 | 74.53374 | -36.16829 | 37261 ft | 520 kts | 51° |
| 2026-04-21 17:19 | 74.58049 | -35.96133 | 37264 ft | 520 kts | 51° |
| 2026-04-21 17:19 | 74.62695 | -35.75290 | 37264 ft | 520 kts | 51° |
| 2026-04-21 17:20 | 74.67320 | -35.54310 | 37255 ft | 520 kts | 51° |
| 2026-04-21 17:20 | 74.71900 | -35.33384 | 37254 ft | 520 kts | 51° |
| 2026-04-21 17:21 | 74.76505 | -35.12167 | 37250 ft | 520 kts | 51° |
| 2026-04-21 17:21 | 74.81079 | -34.90839 | 37250 ft | 520 kts | 51° |
| 2026-04-21 17:22 | 74.85634 | -34.69365 | 37243 ft | 520 kts | 52° |
| 2026-04-21 17:22 | 74.90170 | -34.47749 | 37237 ft | 520 kts | 51° |
| 2026-04-21 17:23 | 74.94686 | -34.26004 | 37246 ft | 521 kts | 52° |
| 2026-04-21 17:23 | 74.99178 | -34.04129 | 37247 ft | 521 kts | 50° |
| 2026-04-21 17:24 | 75.04254 | -33.84530 | 37242 ft | 519 kts | 41° |
| 2026-04-21 17:24 | 75.09558 | -33.65193 | 37242 ft | 520 kts | 42° |
| 2026-04-21 17:25 | 75.14798 | -33.45823 | 37233 ft | 520 kts | 41° |
| 2026-04-21 17:25 | 75.20015 | -33.26255 | 37235 ft | 520 kts | 42° |
| 2026-04-21 17:26 | 75.25219 | -33.06595 | 37226 ft | 520 kts | 42° |
| 2026-04-21 17:26 | 75.30408 | -32.86826 | 37226 ft | 520 kts | 42° |
| 2026-04-21 17:27 | 75.35581 | -32.66912 | 37274 ft | 520 kts | 42° |
| 2026-04-21 17:27 | 75.40708 | -32.46945 | 37179 ft | 520 kts | 43° |
| 2026-04-21 17:28 | 75.45854 | -32.26693 | 37176 ft | 522 kts | 43° |
| 2026-04-21 17:28 | 75.50998 | -32.06207 | 37185 ft | 523 kts | 43° |
| 2026-04-21 17:29 | 75.56136 | -31.85579 | 37195 ft | 524 kts | 43° |
| 2026-04-21 17:29 | 75.61271 | -31.64792 | 37197 ft | 524 kts | 44° |
| 2026-04-21 17:30 | 75.66391 | -31.43834 | 37215 ft | 525 kts | 43° |
| 2026-04-21 17:30 | 75.71483 | -31.22694 | 37206 ft | 525 kts | 43° |
| 2026-04-21 17:31 | 75.76553 | -31.01375 | 37209 ft | 525 kts | 43° |
| 2026-04-21 17:31 | 75.81619 | -30.79921 | 37197 ft | 525 kts | 44° |
| 2026-04-21 17:32 | 75.86665 | -30.58325 | 37196 ft | 525 kts | 44° |
| 2026-04-21 17:32 | 75.91691 | -30.36585 | 37192 ft | 526 kts | 44° |
| 2026-04-21 17:33 | 75.96699 | -30.14655 | 37197 ft | 525 kts | 44° |
| 2026-04-21 17:33 | 76.01167 | -29.90800 | 37186 ft | 528 kts | 60° |
| 2026-04-21 17:34 | 76.04597 | -29.63923 | 37187 ft | 528 kts | 62° |
| 2026-04-21 17:34 | 76.08006 | -29.36920 | 37175 ft | 528 kts | 62° |
| 2026-04-21 17:35 | 76.11350 | -29.09958 | 37182 ft | 528 kts | 63° |
| 2026-04-21 17:35 | 76.14678 | -28.82661 | 37168 ft | 529 kts | 62° |
| 2026-04-21 17:36 | 76.17989 | -28.55208 | 37163 ft | 529 kts | 62° |
| 2026-04-21 17:36 | 76.21266 | -28.27610 | 37144 ft | 529 kts | 63° |
| 2026-04-21 17:37 | 76.24508 | -27.99895 | 37141 ft | 529 kts | 63° |
| 2026-04-21 17:37 | 76.27725 | -27.72054 | 37113 ft | 529 kts | 63° |
| 2026-04-21 17:38 | 76.30911 | -27.44078 | 37116 ft | 529 kts | 63° |
| 2026-04-21 17:38 | 76.34059 | -27.16035 | 37109 ft | 528 kts | 63° |
| 2026-04-21 17:39 | 76.37169 | -26.87888 | 37101 ft | 527 kts | 64° |
| 2026-04-21 17:39 | 76.40242 | -26.59626 | 37119 ft | 527 kts | 64° |
| 2026-04-21 17:40 | 76.43277 | -26.31248 | 37122 ft | 527 kts | 64° |
| 2026-04-21 17:40 | 76.46294 | -26.02722 | 37097 ft | 528 kts | 63° |
| 2026-04-21 17:41 | 76.49283 | -25.74012 | 37090 ft | 529 kts | 64° |
| 2026-04-21 17:41 | 76.52254 | -25.45112 | 37075 ft | 531 kts | 64° |
| 2026-04-21 17:42 | 76.55199 | -25.15973 | 37085 ft | 533 kts | 64° |
| 2026-04-21 17:42 | 76.58083 | -24.86820 | 37078 ft | 534 kts | 65° |
| 2026-04-21 17:43 | 76.60966 | -24.57319 | 37104 ft | 534 kts | 64° |
| 2026-04-21 17:43 | 76.63819 | -24.27746 | 37083 ft | 533 kts | 64° |
| 2026-04-21 17:44 | 76.66631 | -23.98064 | 37082 ft | 533 kts | 64° |
| 2026-04-21 17:44 | 76.69407 | -23.68262 | 37078 ft | 533 kts | 65° |
| 2026-04-21 17:45 | 76.72146 | -23.38355 | 37076 ft | 533 kts | 65° |
| 2026-04-21 17:45 | 76.74852 | -23.08302 | 37104 ft | 533 kts | 65° |
| 2026-04-21 17:46 | 76.77519 | -22.78185 | 37101 ft | 532 kts | 65° |
| 2026-04-21 17:46 | 76.80141 | -22.47964 | 37103 ft | 531 kts | 65° |
| 2026-04-21 17:47 | 76.82723 | -22.17645 | 37099 ft | 531 kts | 66° |
| 2026-04-21 17:47 | 76.85279 | -21.87207 | 37097 ft | 531 kts | 66° |
| 2026-04-21 17:48 | 76.87802 | -21.56698 | 37102 ft | 531 kts | 66° |
| 2026-04-21 17:48 | 76.90286 | -21.26094 | 37097 ft | 530 kts | 66° |
| 2026-04-21 17:49 | 76.92711 | -20.95638 | 37095 ft | 529 kts | 66° |
| 2026-04-21 17:49 | 76.95115 | -20.64863 | 37092 ft | 529 kts | 67° |
| 2026-04-21 17:50 | 76.97478 | -20.33978 | 37090 ft | 529 kts | 67° |
| 2026-04-21 17:50 | 76.99857 | -20.03111 | 37101 ft | 526 kts | 62° |
| 2026-04-21 17:51 | 77.03221 | -19.74680 | 37089 ft | 518 kts | 54° |
| 2026-04-21 17:51 | 77.06746 | -19.46704 | 37075 ft | 517 kts | 54° |
| 2026-04-21 17:52 | 77.10236 | -19.18601 | 37074 ft | 518 kts | 54° |
| 2026-04-21 17:52 | 77.13689 | -18.90270 | 37063 ft | 518 kts | 55° |
| 2026-04-21 17:53 | 77.17112 | -18.61786 | 37060 ft | 518 kts | 55° |
| 2026-04-21 17:53 | 77.19940 | -18.37999 | 37051 ft | 518 kts | 56° |
| 2026-04-21 17:54 | 77.23317 | -18.09204 | 37054 ft | 519 kts | 56° |
| 2026-04-21 17:54 | 77.26663 | -17.80250 | 37067 ft | 520 kts | 56° |
| 2026-04-21 17:55 | 77.30511 | -17.46339 | 37064 ft | 520 kts | 57° |
| 2026-04-21 17:55 | 77.33261 | -17.21748 | 37082 ft | 520 kts | 57° |
| 2026-04-21 17:56 | 77.36519 | -16.92295 | 37071 ft | 519 kts | 57° |
| 2026-04-21 17:56 | 77.39726 | -16.62765 | 37076 ft | 518 kts | 58° |
| 2026-04-21 17:57 | 77.42905 | -16.33150 | 37071 ft | 518 kts | 58° |
| 2026-04-21 17:57 | 77.46050 | -16.03385 | 37073 ft | 518 kts | 58° |
| 2026-04-21 17:58 | 77.49158 | -15.73462 | 37073 ft | 518 kts | 59° |
| 2026-04-21 17:58 | 77.52239 | -15.43428 | 37174 ft | 517 kts | 58° |
| 2026-04-21 17:59 | 77.53764 | -15.28367 | 37015 ft | 516 kts | 58° |
| 2026-04-21 17:59 | 77.55273 | -15.13332 | 37015 ft | 514 kts | 58° |
| 2026-04-21 17:59 | 77.58247 | -14.83333 | 37025 ft | 516 kts | 58° |
| 2026-04-21 18:00 | 77.61218 | -14.52838 | 37038 ft | 519 kts | 59° |
| 2026-04-21 18:00 | 77.64169 | -14.22097 | 37050 ft | 520 kts | 59° |
| 2026-04-21 18:01 | 77.67084 | -13.91165 | 37089 ft | 520 kts | 59° |
| 2026-04-21 18:01 | 77.69970 | -13.60111 | 37087 ft | 519 kts | 59° |
| 2026-04-21 18:02 | 77.72819 | -13.28994 | 37087 ft | 519 kts | 59° |
| 2026-04-21 18:02 | 77.75629 | -12.97746 | 37082 ft | 518 kts | 60° |
| 2026-04-21 18:03 | 77.78391 | -12.66353 | 37085 ft | 518 kts | 60° |
| 2026-04-21 18:03 | 77.81125 | -12.34831 | 37110 ft | 518 kts | 59° |
| 2026-04-21 18:04 | 77.83823 | -12.03168 | 37100 ft | 518 kts | 60° |
| 2026-04-21 18:04 | 77.86484 | -11.71422 | 37088 ft | 517 kts | 60° |
| 2026-04-21 18:05 | 77.89104 | -11.39577 | 37084 ft | 517 kts | 60° |
| 2026-04-21 18:05 | 77.91692 | -11.07588 | 37084 ft | 517 kts | 61° |
| 2026-04-21 18:06 | 77.94220 | -10.75664 | 37134 ft | 517 kts | 61° |
| 2026-04-21 18:06 | 77.96711 | -10.43484 | 37049 ft | 514 kts | 60° |
| 2026-04-21 18:07 | 77.99200 | -10.11384 | 37053 ft | 514 kts | 61° |
| 2026-04-21 18:07 | 78.01425 | -9.78504 | 37062 ft | 521 kts | 66° |
| 2026-04-21 18:08 | 78.03231 | -9.44593 | 37070 ft | 524 kts | 69° |
| 2026-04-21 18:08 | 78.04902 | -9.10373 | 37076 ft | 524 kts | 69° |
| 2026-04-21 18:09 | 78.06613 | -8.76260 | 37058 ft | 520 kts | 67° |
| 2026-04-21 18:09 | 78.08352 | -8.42362 | 37063 ft | 520 kts | 67° |
| 2026-04-21 18:10 | 78.10072 | -8.08322 | 37072 ft | 521 kts | 68° |
| 2026-04-21 18:10 | 78.11726 | -7.74074 | 37080 ft | 523 kts | 68° |
| 2026-04-21 18:11 | 78.13315 | -7.39605 | 37079 ft | 523 kts | 69° |
| 2026-04-21 18:11 | 78.14847 | -7.05337 | 37070 ft | 519 kts | 68° |
| 2026-04-21 18:12 | 78.16353 | -6.71016 | 37065 ft | 519 kts | 69° |
| 2026-04-21 18:12 | 78.17830 | -6.36570 | 37076 ft | 520 kts | 69° |
| 2026-04-21 18:13 | 78.19265 | -6.01974 | 37075 ft | 520 kts | 69° |
| 2026-04-21 18:13 | 78.20657 | -5.67266 | 37079 ft | 521 kts | 70° |
| 2026-04-21 18:14 | 78.22650 | -5.15064 | 37060 ft | 518 kts | 70° |
| 2026-04-21 18:15 | 78.23925 | -4.80305 | 37062 ft | 519 kts | 70° |
| 2026-04-21 18:15 | 78.25161 | -4.45425 | 37068 ft | 520 kts | 70° |
| 2026-04-21 18:16 | 78.26352 | -4.10625 | 37075 ft | 521 kts | 71° |
| 2026-04-21 18:16 | 78.27515 | -3.75499 | 37080 ft | 521 kts | 71° |
| 2026-04-21 18:17 | 78.28625 | -3.40296 | 37065 ft | 519 kts | 71° |
| 2026-04-21 18:17 | 78.29689 | -3.05208 | 37065 ft | 519 kts | 72° |
| 2026-04-21 18:18 | 78.30703 | -2.69972 | 37063 ft | 520 kts | 72° |
| 2026-04-21 18:18 | 78.31684 | -2.34653 | 37070 ft | 520 kts | 72° |
| 2026-04-21 18:19 | 78.32627 | -1.99235 | 37066 ft | 521 kts | 73° |
| 2026-04-21 18:19 | 78.33530 | -1.63702 | 37067 ft | 521 kts | 73° |
| 2026-04-21 18:20 | 78.34388 | -1.28088 | 37063 ft | 522 kts | 73° |
| 2026-04-21 18:20 | 78.35192 | -0.92366 | 37065 ft | 523 kts | 74° |
| 2026-04-21 18:21 | 78.35962 | -0.56581 | 37066 ft | 523 kts | 74° |
| 2026-04-21 18:21 | 78.36688 | -0.20691 | 37067 ft | 524 kts | 75° |
| 2026-04-21 18:22 | 78.37365 | 0.15225 | 37044 ft | 521 kts | 75° |
| 2026-04-21 18:22 | 78.37990 | 0.50880 | 37041 ft | 518 kts | 75° |
| 2026-04-21 18:23 | 78.38572 | 0.86552 | 37039 ft | 519 kts | 76° |
| 2026-04-21 18:23 | 78.39116 | 1.22291 | 37044 ft | 520 kts | 76° |
| 2026-04-21 18:24 | 78.39621 | 1.58124 | 37035 ft | 520 kts | 76° |
| 2026-04-21 18:24 | 78.40079 | 1.93804 | 37079 ft | 521 kts | 77° |
| 2026-04-21 18:25 | 78.40476 | 2.29435 | 37015 ft | 514 kts | 77° |
| 2026-04-21 18:25 | 78.40845 | 2.64914 | 37022 ft | 514 kts | 77° |
| 2026-04-21 18:26 | 78.41175 | 3.00431 | 37009 ft | 514 kts | 77° |
| 2026-04-21 18:26 | 78.41453 | 3.35979 | 37016 ft | 515 kts | 78° |
| 2026-04-21 18:27 | 78.41678 | 3.71576 | 37017 ft | 515 kts | 78° |
| 2026-04-21 18:27 | 78.41862 | 4.06995 | 36987 ft | 508 kts | 79° |
| 2026-04-21 18:28 | 78.42013 | 4.42140 | 36993 ft | 508 kts | 79° |
| 2026-04-21 18:28 | 78.42118 | 4.77313 | 36985 ft | 509 kts | 79° |
| 2026-04-21 18:29 | 78.42178 | 5.12568 | 36988 ft | 509 kts | 80° |
| 2026-04-21 18:29 | 78.42197 | 5.47839 | 36978 ft | 510 kts | 80° |
| 2026-04-21 18:30 | 78.42174 | 5.83079 | 36970 ft | 507 kts | 81° |
| 2026-04-21 18:30 | 78.42099 | 6.18065 | 36955 ft | 505 kts | 81° |
| 2026-04-21 18:31 | 78.41988 | 6.53064 | 36960 ft | 506 kts | 82° |
| 2026-04-21 18:31 | 78.41837 | 6.88101 | 36949 ft | 506 kts | 82° |
| 2026-04-21 18:32 | 78.41645 | 7.23133 | 36954 ft | 507 kts | 82° |
| 2026-04-21 18:32 | 78.41413 | 7.58227 | 36955 ft | 507 kts | 83° |
| 2026-04-21 18:33 | 78.41138 | 7.92809 | 36920 ft | 503 kts | 83° |
| 2026-04-21 18:33 | 78.40988 | 8.10260 | 36741 ft | 506 kts | 84° |
| 2026-04-21 18:33 | 78.40830 | 8.27800 | 36091 ft | 509 kts | 83° |
| 2026-04-21 18:33 | 78.40656 | 8.45420 | 35488 ft | 511 kts | 83° |
| 2026-04-21 18:34 | 78.40467 | 8.63124 | 34898 ft | 515 kts | 83° |
| 2026-04-21 18:34 | 78.40265 | 8.80983 | 34323 ft | 520 kts | 82° |
| 2026-04-21 18:34 | 78.40053 | 8.99028 | 33705 ft | 525 kts | 82° |
| 2026-04-21 18:34 | 78.39829 | 9.17204 | 33046 ft | 529 kts | 82° |
| 2026-04-21 18:35 | 78.39668 | 9.29552 | 32601 ft | 531 kts | 81° |
| 2026-04-21 18:35 | 78.39330 | 9.53792 | 31849 ft | 530 kts | 81° |
| 2026-04-21 18:35 | 78.39060 | 9.72029 | 31204 ft | 528 kts | 80° |
| 2026-04-21 18:35 | 78.38782 | 9.90175 | 30597 ft | 527 kts | 79° |
| 2026-04-21 18:36 | 78.38494 | 10.08281 | 30002 ft | 526 kts | 79° |
| 2026-04-21 18:36 | 78.38198 | 10.26360 | 29307 ft | 525 kts | 79° |
| 2026-04-21 18:36 | 78.37890 | 10.44338 | 28616 ft | 522 kts | 79° |
| 2026-04-21 18:36 | 78.37573 | 10.62220 | 27921 ft | 518 kts | 79° |
| 2026-04-21 18:37 | 78.37252 | 10.79933 | 27261 ft | 514 kts | 79° |
| 2026-04-21 18:37 | 78.36920 | 10.97508 | 26616 ft | 510 kts | 79° |
| 2026-04-21 18:37 | 78.36579 | 11.14912 | 25987 ft | 506 kts | 79° |
| 2026-04-21 18:37 | 78.36232 | 11.32191 | 25471 ft | 502 kts | 80° |
| 2026-04-21 18:38 | 78.35878 | 11.49300 | 24864 ft | 497 kts | 80° |
| 2026-04-21 18:38 | 78.35516 | 11.66229 | 24277 ft | 493 kts | 80° |
| 2026-04-21 18:38 | 78.35147 | 11.83030 | 23696 ft | 488 kts | 80° |
| 2026-04-21 18:38 | 78.34775 | 11.99646 | 23044 ft | 484 kts | 80° |
| 2026-04-21 18:39 | 78.34397 | 12.16120 | 22345 ft | 479 kts | 81° |
| 2026-04-21 18:39 | 78.33964 | 12.32393 | 21663 ft | 484 kts | 88° |
| 2026-04-21 18:39 | 78.32920 | 12.48574 | 20997 ft | 498 kts | 101° |
| 2026-04-21 18:39 | 78.31629 | 12.64341 | 20348 ft | 494 kts | 102° |
| 2026-04-21 18:40 | 78.30335 | 12.79684 | 19704 ft | 489 kts | 103° |
| 2026-04-21 18:40 | 78.29008 | 12.95043 | 18969 ft | 486 kts | 105° |
| 2026-04-21 18:40 | 78.28105 | 13.05344 | 18584 ft | 483 kts | 105° |
| 2026-04-21 18:40 | 78.26347 | 13.25285 | 17544 ft | 477 kts | 106° |
| 2026-04-21 18:41 | 78.25034 | 13.40130 | 16700 ft | 472 kts | 106° |
| 2026-04-21 18:41 | 78.23733 | 13.54799 | 15885 ft | 466 kts | 106° |
| 2026-04-21 18:41 | 78.22443 | 13.69275 | 15102 ft | 462 kts | 106° |
| 2026-04-21 18:41 | 78.21157 | 13.83597 | 14337 ft | 458 kts | 107° |
| 2026-04-21 18:42 | 78.19882 | 13.97677 | 13699 ft | 445 kts | 107° |
| 2026-04-21 18:42 | 78.18650 | 14.11093 | 13003 ft | 422 kts | 107° |
| 2026-04-21 18:42 | 78.17469 | 14.23831 | 12323 ft | 402 kts | 107° |
| 2026-04-21 18:42 | 78.16340 | 14.35993 | 11659 ft | 386 kts | 107° |
| 2026-04-21 18:43 | 78.15256 | 14.47668 | 11029 ft | 371 kts | 107° |
| 2026-04-21 18:43 | 78.14216 | 14.58825 | 10630 ft | 353 kts | 107° |
| 2026-04-21 18:43 | 78.13216 | 14.69444 | 10247 ft | 339 kts | 107° |
| 2026-04-21 18:43 | 78.12249 | 14.79639 | 9917 ft | 326 kts | 106° |
| 2026-04-21 18:44 | 78.11311 | 14.89448 | 9531 ft | 315 kts | 107° |
| 2026-04-21 18:44 | 78.10403 | 14.98928 | 9107 ft | 305 kts | 106° |
| 2026-04-21 18:44 | 78.09521 | 15.08125 | 8698 ft | 297 kts | 106° |
| 2026-04-21 18:44 | 78.08661 | 15.17061 | 8283 ft | 290 kts | 106° |
| 2026-04-21 18:45 | 78.07816 | 15.25787 | 7875 ft | 283 kts | 107° |
| 2026-04-21 18:45 | 78.06995 | 15.34209 | 7483 ft | 278 kts | 107° |
| 2026-04-21 18:45 | 78.06441 | 15.39880 | 7210 ft | 275 kts | 107° |
| 2026-04-21 18:45 | 78.05626 | 15.48235 | 6835 ft | 277 kts | 107° |
| 2026-04-21 18:46 | 78.04528 | 15.59530 | 6319 ft | 285 kts | 108° |
| 2026-04-21 18:46 | 78.03952 | 15.65388 | 6070 ft | 287 kts | 108° |
| 2026-04-21 18:46 | 78.03084 | 15.74136 | 5678 ft | 291 kts | 109° |
| 2026-04-21 18:46 | 78.02200 | 15.82914 | 5423 ft | 288 kts | 109° |
| 2026-04-21 18:47 | 78.01333 | 15.91431 | 5286 ft | 280 kts | 109° |
| 2026-04-21 18:47 | 78.00497 | 15.99635 | 5159 ft | 267 kts | 109° |
| 2026-04-21 18:47 | 77.99728 | 16.07473 | 5163 ft | 251 kts | 105° |
| 2026-04-21 18:47 | 77.99103 | 16.15013 | 5165 ft | 238 kts | 102° |
| 2026-04-21 18:48 | 77.98545 | 16.22437 | 5166 ft | 236 kts | 101° |
| 2026-04-21 18:48 | 77.98001 | 16.29847 | 5164 ft | 236 kts | 102° |
| 2026-04-21 18:48 | 77.97160 | 16.36766 | 5168 ft | 246 kts | 128° |
| 2026-04-21 18:48 | 77.95755 | 16.41538 | 5156 ft | 252 kts | 158° |
| 2026-04-21 18:49 | 77.94034 | 16.42872 | 5176 ft | 253 kts | 188° |
| 2026-04-21 18:49 | 77.92402 | 16.40627 | 5157 ft | 239 kts | 217° |
| 2026-04-21 18:49 | 77.91530 | 16.37556 | 5159 ft | 234 kts | 233° |
| 2026-04-21 18:49 | 77.90472 | 16.29133 | 5174 ft | 217 kts | 265° |
| 2026-04-21 18:50 | 77.90336 | 16.22261 | 5168 ft | 202 kts | 286° |
| 2026-04-21 18:50 | 77.90661 | 16.16179 | 5164 ft | 176 kts | 304° |
| 2026-04-21 18:50 | 77.91275 | 16.11540 | 5167 ft | 158 kts | 318° |
| 2026-04-21 18:50 | 77.92077 | 16.08137 | 5178 ft | 153 kts | 332° |
| 2026-04-21 18:51 | 77.93017 | 16.05930 | 5172 ft | 149 kts | 343° |
| 2026-04-21 18:51 | 77.94033 | 16.04974 | 5168 ft | 149 kts | 354° |
| 2026-04-21 18:51 | 77.95074 | 16.04821 | 5171 ft | 150 kts | 357° |
| 2026-04-21 18:51 | 77.96122 | 16.04808 | 5171 ft | 151 kts | 358° |
| 2026-04-21 18:52 | 77.97168 | 16.04815 | 5167 ft | 151 kts | 358° |
| 2026-04-21 18:52 | 77.98217 | 16.04813 | 5167 ft | 151 kts | 357° |
| 2026-04-21 18:52 | 77.99266 | 16.04807 | 5168 ft | 151 kts | 358° |
| 2026-04-21 18:52 | 78.00316 | 16.04774 | 5167 ft | 151 kts | 356° |
| 2026-04-21 18:53 | 78.01365 | 16.04533 | 5167 ft | 151 kts | 355° |
| 2026-04-21 18:53 | 78.02409 | 16.04239 | 5200 ft | 150 kts | 355° |
| 2026-04-21 18:53 | 78.03453 | 16.03950 | 5183 ft | 150 kts | 355° |
| 2026-04-21 18:53 | 78.04495 | 16.03669 | 5174 ft | 150 kts | 355° |
| 2026-04-21 18:54 | 78.05540 | 16.03377 | 5023 ft | 151 kts | 355° |
| 2026-04-21 18:54 | 78.06585 | 16.03088 | 4831 ft | 151 kts | 355° |
| 2026-04-21 18:54 | 78.07615 | 16.02816 | 4631 ft | 150 kts | 355° |
| 2026-04-21 18:54 | 78.08665 | 16.02539 | 4440 ft | 151 kts | 355° |
| 2026-04-21 18:55 | 78.09376 | 16.02353 | 4303 ft | 152 kts | 355° |
| 2026-04-21 18:55 | 78.10789 | 16.01973 | 4056 ft | 155 kts | 355° |
| 2026-04-21 18:55 | 78.11845 | 16.01688 | 3858 ft | 147 kts | 355° |
| 2026-04-21 18:55 | 78.12823 | 16.01426 | 3660 ft | 136 kts | 354° |
| 2026-04-21 18:56 | 78.13757 | 16.01168 | 3465 ft | 133 kts | 354° |
| 2026-04-21 18:56 | 78.14673 | 16.00913 | 3283 ft | 131 kts | 354° |
| 2026-04-21 18:56 | 78.15579 | 16.00600 | 3101 ft | 130 kts | 350° |
| 2026-04-21 18:56 | 78.16454 | 15.99628 | 2917 ft | 129 kts | 340° |
| 2026-04-21 18:57 | 78.17275 | 15.97914 | 2722 ft | 128 kts | 331° |
| 2026-04-21 18:57 | 78.18021 | 15.95530 | 2547 ft | 129 kts | 323° |
| 2026-04-21 18:57 | 78.18737 | 15.92928 | 2362 ft | 128 kts | 324° |
| 2026-04-21 18:57 | 78.19451 | 15.90343 | 2185 ft | 127 kts | 324° |
| 2026-04-21 18:58 | 78.20164 | 15.87756 | 2008 ft | 128 kts | 323° |
| 2026-04-21 18:58 | 78.20878 | 15.85168 | 1815 ft | 128 kts | 323° |
| 2026-04-21 18:58 | 78.21592 | 15.82589 | 1610 ft | 127 kts | 323° |
| 2026-04-21 18:58 | 78.22247 | 15.79734 | 1437 ft | 126 kts | 313° |
| 2026-04-21 18:59 | 78.22770 | 15.76290 | 1262 ft | 126 kts | 303° |
| 2026-04-21 18:59 | 78.23151 | 15.72415 | 1093 ft | 127 kts | 293° |
| 2026-04-21 18:59 | 78.23383 | 15.68199 | 899 ft | 130 kts | 285° |
| 2026-04-21 18:59 | 78.23584 | 15.63904 | 661 ft | 128 kts | 287° |
| 2026-04-21 19:00 | 78.23818 | 15.59710 | 420 ft | 126 kts | 288° |
| 2026-04-21 19:00 | 78.24071 | 15.55602 | 268 ft | 127 kts | 291° |
| 2026-04-21 19:00 | 78.24323 | 15.51555 | 116 ft | 120 kts | 287° |
| 2026-04-21 19:00 | 78.24526 | 15.48126 | 91 ft | 90 kts | 285° |
| 2026-04-21 19:01 | 78.24617 | 15.46573 | 94 ft | 20 kts | 285° |
| 2026-04-21 19:01 | 78.24625 | 15.46345 | 93 ft | 3 kts | 154° |
| 2026-04-21 19:01 | 78.24618 | 15.46532 | 95 ft | 8 kts | 85° |
| 2026-04-21 19:01 | 78.24612 | 15.46879 | 93 ft | 12 kts | 105° |
| 2026-04-21 19:02 | 78.24585 | 15.47345 | 92 ft | 16 kts | 107° |
| 2026-04-21 19:02 | 78.24543 | 15.47923 | 90 ft | 20 kts | 110° |
| 2026-04-21 19:02 | 78.24496 | 15.48619 | 89 ft | 20 kts | 105° |
| 2026-04-21 19:02 | 78.24474 | 15.49035 | 90 ft | 12 kts | 101° |
| 2026-04-21 19:03 | 78.24498 | 15.49425 | 90 ft | 14 kts | 21° |
| 2026-04-21 19:03 | 78.24566 | 15.49501 | 89 ft | 7 kts | 356° |
| 2026-04-21 19:03 | 78.24593 | 15.49318 | 90 ft | 9 kts | 292° |
| 2026-04-21 19:03 | 78.24620 | 15.49254 | 88 ft | 6 kts | 73° |
| 2026-04-21 19:04 | 78.24616 | 15.49504 | 89 ft | 9 kts | 103° |
| 2026-04-21 19:04 | 78.24603 | 15.49746 | 90 ft | 0 kts | 106° |
| 2026-04-21 19:04 | 78.24603 | 15.49754 | 90 ft | 0 kts | 106° |